LICC/CTA METAR and TAF weather

Enter ICAO airport designator
Station Type Date Time Source
LICC METAR 2021/05/12 05:20 UTC NOAA

LICC 120520Z 26005KT CAVOK 16/13 Q1013


Station Type Date Time Source
LICC Decoded METAR 2021/05/12 05:20 UTC NOAA

Catania / Fontanarossa, Italy (LICC) 37-28N 015-03E 17M
May 12, 2021 - 01:20 AM EDT / 2021.05.12 0520 UTC
Wind: from the W (260 degrees) at 6 MPH (5 KT):0
Visibility: greater than 7 mile(s):0
Temperature: 60 F (16 C)
Dew Point: 55 F (13 C)
Relative Humidity: 82%
Pressure (altimeter): 29.91 in. Hg (1013 hPa)
ob: LICC 120520Z 26005KT CAVOK 16/13 Q1013
cycle: 5

Station Type Date Time Source
LICC TAF 2021/05/12 06:21 UTC NOAA

TAF LICC 120500Z 1206/1306 VRB05KT 9999 FEW040
BECMG 1208/1210 09010KT

Example: see airport list